createdAt,value
2023-05-08T00:00:41.374Z,4.50
2023-05-08T00:05:42.873Z,4.07
2023-05-08T00:10:44.296Z,4.15
2023-05-08T00:15:45.746Z,3.90
2023-05-08T00:20:47.198Z,4.07
2023-05-08T00:25:48.630Z,4.10
2023-05-08T00:30:50.069Z,4.00
2023-05-08T00:35:51.500Z,3.70
2023-05-08T00:40:53.015Z,3.72
2023-05-08T00:46:01.689Z,3.53
2023-05-08T00:51:06.150Z,4.10
2023-05-08T00:56:10.940Z,3.60
2023-05-08T01:01:12.770Z,3.55
2023-05-08T01:06:14.981Z,3.72
2023-05-08T01:11:41.714Z,3.58
2023-05-08T01:17:16.059Z,3.90
2023-05-08T01:22:29.890Z,3.80
2023-05-08T01:28:04.104Z,4.05
2023-05-08T01:33:17.262Z,3.88
2023-05-08T01:38:42.977Z,3.90
2023-05-08T01:44:13.656Z,3.93
2023-05-08T01:49:27.505Z,3.55
2023-05-08T01:54:36.228Z,4.03
2023-05-08T01:59:41.277Z,4.07
2023-05-08T02:04:45.270Z,4.40
2023-05-08T02:09:48.307Z,4.25
2023-05-08T02:14:53.147Z,4.00
2023-05-08T02:19:57.978Z,4.05
2023-05-08T02:25:00.164Z,4.68
2023-05-08T02:30:02.604Z,4.47
2023-05-08T02:35:05.455Z,4.25
2023-05-08T02:40:10.227Z,4.57
2023-05-08T02:45:11.977Z,4.60
2023-05-08T02:50:19.320Z,4.90
2023-05-08T02:55:24.208Z,4.93
2023-05-08T03:00:32.708Z,5.53
2023-05-08T03:05:37.013Z,4.90
2023-05-08T03:10:40.217Z,4.97
2023-05-08T03:15:48.492Z,4.78
2023-05-08T03:20:54.371Z,5.70
2023-05-08T03:25:59.149Z,5.20
2023-05-08T03:31:02.595Z,4.60
2023-05-08T03:36:04.621Z,5.07
2023-05-08T03:41:07.002Z,5.15
2023-05-08T03:46:09.660Z,5.20
2023-05-08T03:51:12.027Z,4.90
2023-05-08T03:56:14.453Z,4.85
2023-05-08T04:01:37.466Z,5.63
2023-05-08T04:07:07.664Z,5.10
2023-05-08T04:12:38.771Z,5.28
2023-05-08T04:17:53.622Z,4.90
2023-05-08T04:22:56.993Z,5.95
2023-05-08T04:27:59.956Z,4.65
2023-05-08T04:33:04.212Z,4.68
2023-05-08T04:38:06.008Z,5.35
2023-05-08T04:43:07.746Z,5.43
2023-05-08T04:48:09.527Z,5.53
2023-05-08T04:53:11.010Z,4.63
2023-05-08T04:58:12.573Z,5.13
2023-05-08T05:03:14.402Z,4.93
2023-05-08T05:08:16.397Z,4.53
2023-05-08T05:13:18.269Z,3.92
2023-05-08T05:18:20.842Z,4.78
2023-05-08T05:23:23.834Z,4.20
2023-05-08T05:28:25.379Z,4.53
2023-05-08T05:33:26.908Z,4.45
2023-05-08T05:38:28.753Z,4.47
2023-05-08T05:43:30.640Z,4.43
2023-05-08T05:48:32.279Z,4.13
2023-05-08T05:53:33.780Z,4.72
2023-05-08T05:58:35.424Z,4.50
2023-05-08T06:03:37.391Z,4.10
2023-05-08T06:08:39.410Z,4.50
2023-05-08T06:13:40.908Z,4.28
2023-05-08T06:18:42.636Z,4.80
2023-05-08T06:23:44.598Z,4.60
2023-05-08T06:28:46.044Z,4.65
2023-05-08T06:33:47.463Z,4.30
2023-05-08T06:38:48.892Z,4.32
2023-05-08T06:43:50.343Z,4.82
2023-05-08T06:48:51.837Z,4.60
2023-05-08T06:53:53.256Z,4.90
2023-05-08T06:59:07.218Z,5.22
2023-05-08T07:04:11.320Z,5.43
2023-05-08T07:09:12.958Z,5.32
2023-05-08T07:14:14.550Z,5.03
2023-05-08T07:19:15.976Z,5.25
2023-05-08T07:24:17.405Z,5.57
2023-05-08T07:29:18.838Z,5.32
2023-05-08T07:34:20.264Z,5.60
2023-05-08T07:39:21.674Z,6.05
2023-05-08T07:44:23.080Z,6.13
2023-05-08T07:49:24.630Z,6.43
2023-05-08T07:54:26.147Z,6.00
2023-05-08T07:59:27.605Z,6.53
2023-05-08T08:04:29.104Z,6.63
2023-05-08T08:09:30.650Z,6.45
2023-05-08T08:14:32.075Z,6.47
2023-05-08T08:19:33.503Z,6.75
2023-05-08T08:24:35.465Z,6.70
2023-05-08T08:29:36.867Z,6.75
2023-05-08T08:34:38.324Z,7.15
2023-05-08T08:39:39.715Z,6.60
2023-05-08T08:44:41.220Z,7.72
2023-05-08T08:49:47.951Z,7.80
2023-05-08T08:54:50.378Z,7.78
2023-05-08T08:59:53.852Z,6.82
2023-05-08T09:04:55.463Z,7.00
2023-05-08T09:09:57.349Z,7.13
2023-05-08T09:14:58.853Z,7.32
2023-05-08T09:20:01.082Z,7.00
2023-05-08T09:25:03.003Z,8.00
2023-05-08T09:30:08.249Z,7.38
2023-05-08T09:40:21.042Z,6.97
2023-05-08T09:45:30.636Z,7.35
2023-05-08T09:50:32.173Z,7.28
2023-05-08T09:55:49.087Z,6.70
2023-05-08T10:00:51.271Z,7.22
2023-05-08T10:05:52.732Z,5.93
2023-05-08T10:10:54.185Z,6.57
2023-05-08T10:15:57.128Z,6.05
2023-05-08T10:21:00.919Z,6.15
2023-05-08T10:26:09.173Z,6.10
2023-05-08T10:31:12.941Z,6.18
2023-05-08T10:36:15.519Z,6.35
2023-05-08T10:41:17.136Z,5.78
2023-05-08T10:46:22.664Z,5.93
2023-05-08T10:51:27.217Z,5.82
2023-05-08T10:56:28.976Z,5.67
2023-05-08T11:01:30.482Z,5.18
2023-05-08T11:06:45.976Z,4.72
2023-05-08T11:11:57.906Z,4.40
2023-05-08T11:17:03.630Z,5.43
2023-05-08T11:22:15.428Z,3.90
2023-05-08T11:27:17.525Z,3.70
2023-05-08T11:32:19.021Z,4.32
2023-05-08T11:37:22.867Z,3.78
2023-05-08T11:42:27.473Z,4.18
2023-05-08T11:47:38.256Z,3.83
2023-05-08T11:52:41.447Z,3.92
2023-05-08T11:57:43.022Z,3.50
2023-05-08T12:02:44.514Z,2.85
2023-05-08T12:07:47.027Z,3.25
2023-05-08T12:12:48.752Z,3.63
2023-05-08T12:18:01.285Z,3.53
2023-05-08T12:23:03.369Z,2.63
2023-05-08T12:28:08.772Z,2.92
2023-05-08T12:33:10.972Z,2.85
2023-05-08T12:38:13.072Z,2.83
2023-05-08T12:43:14.511Z,3.50
2023-05-08T12:48:15.985Z,3.00
2023-05-08T12:53:18.990Z,3.28
2023-05-08T12:58:24.823Z,3.58
2023-05-08T13:03:28.776Z,2.90
2023-05-08T13:08:38.206Z,2.72
2023-05-08T13:13:39.659Z,2.72
2023-05-08T13:18:41.076Z,3.20
2023-05-08T13:23:42.580Z,2.67
2023-05-08T13:28:44.042Z,3.25
2023-05-08T13:33:45.464Z,2.90
2023-05-08T13:38:46.909Z,2.85
2023-05-08T13:43:48.324Z,2.75
2023-05-08T13:48:49.813Z,2.58
2023-05-08T13:53:51.261Z,3.20
2023-05-08T13:58:52.756Z,3.17
2023-05-08T14:03:55.230Z,2.92
2023-05-08T14:08:57.316Z,2.80
2023-05-08T14:13:59.049Z,2.95
2023-05-08T14:19:00.749Z,2.85
2023-05-08T14:24:02.374Z,3.20
2023-05-08T14:29:04.781Z,2.70
2023-05-08T14:34:06.208Z,2.70
2023-05-08T14:39:07.651Z,3.05
2023-05-08T14:44:09.211Z,3.20
2023-05-08T14:49:10.672Z,2.92
2023-05-08T14:54:12.199Z,2.53
2023-05-08T14:59:13.722Z,3.10
2023-05-08T15:04:15.606Z,3.22
2023-05-08T15:09:17.265Z,3.40
2023-05-08T15:14:18.683Z,2.83
2023-05-08T15:19:20.104Z,2.50
2023-05-08T15:24:21.535Z,3.05
2023-05-08T15:29:22.957Z,2.83
2023-05-08T15:34:26.461Z,2.90
2023-05-08T15:39:30.610Z,2.90
2023-05-08T15:44:52.686Z,3.00
2023-05-08T15:49:54.142Z,2.70
2023-05-08T15:54:55.619Z,2.47
2023-05-08T15:59:57.760Z,2.55
2023-05-08T16:04:59.225Z,2.50
2023-05-08T16:10:00.855Z,2.53
2023-05-08T16:15:02.367Z,2.50
2023-05-08T16:20:04.824Z,2.00
2023-05-08T16:25:06.819Z,2.20
2023-05-08T16:30:08.915Z,1.95
2023-05-08T16:35:10.392Z,1.98
2023-05-08T16:40:12.272Z,2.00
2023-05-08T16:45:13.851Z,2.40
2023-05-08T16:50:15.582Z,1.88
2023-05-08T16:55:17.235Z,2.33
2023-05-08T17:00:18.968Z,2.00
2023-05-08T17:05:20.409Z,2.17
2023-05-08T17:10:21.940Z,1.75
2023-05-08T17:15:23.466Z,1.50
2023-05-08T17:20:24.929Z,1.73
2023-05-08T17:25:26.358Z,1.88
2023-05-08T17:30:28.351Z,1.92
2023-05-08T17:35:29.799Z,1.85
2023-05-08T17:40:31.283Z,1.67
2023-05-08T17:45:32.798Z,1.20
2023-05-08T17:50:34.389Z,1.20
2023-05-08T17:55:35.837Z,1.35
2023-05-08T18:00:37.312Z,1.92
2023-05-08T18:05:38.735Z,2.22
2023-05-08T18:10:40.233Z,2.25
2023-05-08T18:15:41.727Z,2.25
2023-05-08T18:20:43.232Z,1.70
2023-05-08T18:25:44.652Z,1.70
2023-05-08T18:30:46.114Z,1.80
2023-05-08T18:35:47.677Z,1.35
2023-05-08T18:40:49.132Z,1.90
2023-05-08T18:45:50.578Z,1.90
2023-05-08T18:50:52.028Z,1.73
2023-05-08T18:55:53.465Z,1.58
2023-05-08T19:00:55.961Z,1.52
2023-05-08T19:05:57.546Z,1.63
2023-05-08T19:10:59.002Z,1.88
2023-05-08T19:16:00.544Z,1.73
2023-05-08T19:21:02.233Z,1.85
2023-05-08T19:26:03.998Z,1.65
2023-05-08T19:31:05.471Z,1.75
2023-05-08T19:36:06.926Z,1.52
2023-05-08T19:41:08.384Z,1.75
2023-05-08T19:46:09.853Z,1.70
2023-05-08T19:51:11.303Z,1.67
2023-05-08T19:56:12.868Z,1.73
2023-05-08T20:01:14.618Z,1.70
2023-05-08T20:06:16.063Z,1.92
2023-05-08T20:11:17.505Z,2.90
2023-05-08T20:16:18.975Z,2.22
2023-05-08T20:21:20.680Z,1.73
2023-05-08T20:26:22.117Z,1.70
2023-05-08T20:31:23.713Z,2.20
2023-05-08T20:36:25.874Z,1.73
2023-05-08T20:41:27.424Z,2.10
2023-05-08T20:46:29.009Z,1.38
2023-05-08T20:51:30.495Z,1.60
2023-05-08T20:56:31.950Z,1.67
2023-05-08T21:01:33.452Z,1.48
2023-05-08T21:06:34.983Z,2.38
2023-05-08T21:11:36.418Z,1.73
2023-05-08T21:16:37.896Z,1.80
2023-05-08T21:21:39.368Z,1.80
2023-05-08T21:26:40.790Z,2.08
2023-05-08T21:31:42.406Z,1.60
2023-05-08T21:36:43.850Z,1.73
2023-05-08T21:41:46.223Z,1.70
2023-05-08T21:46:47.687Z,1.65
2023-05-08T21:51:49.132Z,1.90
2023-05-08T21:56:50.676Z,1.77
2023-05-08T22:01:52.131Z,2.15
2023-05-08T22:06:53.565Z,1.60
2023-05-08T22:11:55.009Z,1.52
2023-05-08T22:16:56.447Z,1.77
2023-05-08T22:21:57.918Z,1.77
2023-05-08T22:26:59.447Z,1.60
2023-05-08T22:32:00.955Z,1.90
2023-05-08T22:37:02.422Z,1.85
2023-05-08T22:42:04.023Z,1.92
2023-05-08T22:47:05.926Z,2.15
2023-05-08T22:52:08.905Z,1.95
2023-05-08T22:57:10.383Z,2.00
2023-05-08T23:02:11.825Z,1.90
2023-05-08T23:07:13.286Z,2.03
2023-05-08T23:12:14.724Z,1.90
2023-05-08T23:17:16.205Z,2.53
2023-05-08T23:22:17.840Z,1.80
2023-05-08T23:27:19.288Z,1.98
2023-05-08T23:32:20.749Z,2.25
2023-05-08T23:37:22.185Z,2.72
2023-05-08T23:42:23.665Z,2.08
2023-05-08T23:47:25.082Z,2.03
2023-05-08T23:52:26.522Z,1.90
2023-05-08T23:57:27.954Z,1.80
